createdAt,value
2023-03-28T00:02:48.629Z,1.12
2023-03-28T00:07:50.867Z,1.05
2023-03-28T00:12:54.513Z,1.09
2023-03-28T00:17:56.703Z,1.14
2023-03-28T00:22:59.073Z,1.12
2023-03-28T00:28:02.981Z,1.00
2023-03-28T00:33:05.350Z,1.00
2023-03-28T00:38:07.548Z,0.92
2023-03-28T00:43:15.166Z,1.01
2023-03-28T00:48:17.240Z,1.05
2023-03-28T00:53:23.417Z,1.15
2023-03-28T00:58:29.572Z,1.12
2023-03-28T01:03:35.156Z,1.22
2023-03-28T01:08:40.201Z,1.18
2023-03-28T01:13:47.345Z,1.27
2023-03-28T01:18:50.808Z,1.21
2023-03-28T01:24:43.332Z,1.08
2023-03-28T01:30:21.528Z,1.20
2023-03-28T01:35:53.531Z,1.16
2023-03-28T01:41:04.562Z,1.20
2023-03-28T01:46:12.344Z,1.23
2023-03-28T01:51:24.709Z,1.21
2023-03-28T01:56:37.926Z,1.36
2023-03-28T02:01:48.043Z,1.47
2023-03-28T02:06:51.709Z,1.44
2023-03-28T02:12:02.056Z,1.37
2023-03-28T02:17:09.507Z,1.36
2023-03-28T02:22:19.254Z,1.47
2023-03-28T02:27:23.211Z,1.52
2023-03-28T02:32:25.397Z,1.53
2023-03-28T02:37:40.507Z,1.52
2023-03-28T02:43:03.752Z,1.49
2023-03-28T02:48:19.986Z,1.38
2023-03-28T02:53:28.584Z,1.36
2023-03-28T02:58:36.924Z,1.36
2023-03-28T03:03:39.094Z,1.22
2023-03-28T03:08:41.259Z,1.04
2023-03-28T03:13:44.946Z,1.04
2023-03-28T03:18:47.120Z,1.10
2023-03-28T03:23:48.935Z,1.11
2023-03-28T03:28:52.486Z,1.09
2023-03-28T03:33:55.193Z,1.01
2023-03-28T03:38:57.789Z,0.96
2023-03-28T03:44:00.918Z,0.95
2023-03-28T03:49:10.542Z,0.88
2023-03-28T03:54:13.080Z,0.70
2023-03-28T03:59:16.699Z,0.57
2023-03-28T04:04:18.797Z,0.55
2023-03-28T04:09:20.948Z,0.50
2023-03-28T04:14:24.633Z,0.49
2023-03-28T04:19:26.701Z,0.34
2023-03-28T04:24:28.902Z,0.27
2023-03-28T04:29:32.603Z,0.26
2023-03-28T04:34:35.480Z,0.26
2023-03-28T04:39:41.775Z,0.25
2023-03-28T04:44:45.592Z,0.23
2023-03-28T04:49:47.716Z,0.19
2023-03-28T04:54:49.588Z,0.18
2023-03-28T04:59:53.158Z,0.21
2023-03-28T05:04:55.353Z,0.23
2023-03-28T05:09:57.515Z,0.17
2023-03-28T05:15:01.101Z,0.09
2023-03-28T05:20:03.510Z,0.07
2023-03-28T05:25:05.824Z,0.03
2023-03-28T05:30:11.064Z,0.08
2023-03-28T05:35:14.708Z,-0.05
2023-03-28T05:40:16.921Z,0.07
2023-03-28T05:45:20.686Z,0.06
2023-03-28T05:50:22.800Z,-0.03
2023-03-28T05:55:24.958Z,-0.07
2023-03-28T06:00:28.186Z,-0.05
2023-03-28T06:05:30.133Z,0.08
2023-03-28T06:10:32.233Z,0.26
2023-03-28T06:15:35.327Z,0.36
2023-03-28T06:20:37.401Z,0.56
2023-03-28T06:25:39.112Z,0.86
2023-03-28T06:30:42.669Z,0.89
2023-03-28T06:35:45.527Z,1.01
2023-03-28T06:40:47.923Z,1.02
2023-03-28T06:45:51.594Z,1.24
2023-03-28T06:50:54.765Z,1.27
2023-03-28T06:55:56.949Z,1.32
2023-03-28T07:01:00.626Z,1.52
2023-03-28T07:06:05.420Z,1.58
2023-03-28T07:11:07.791Z,1.55
2023-03-28T07:16:14.251Z,1.65
2023-03-28T07:21:18.115Z,1.76
2023-03-28T07:26:20.377Z,1.92
2023-03-28T07:31:23.951Z,1.86
2023-03-28T07:36:27.854Z,1.94
2023-03-28T07:41:30.176Z,1.95
2023-03-28T07:46:33.638Z,2.17
2023-03-28T07:51:35.753Z,2.33
2023-03-28T07:56:37.905Z,2.46
2023-03-28T08:01:42.461Z,2.49
2023-03-28T08:06:45.392Z,2.62
2023-03-28T08:11:48.192Z,2.88
2023-03-28T08:16:52.799Z,3.00
2023-03-28T08:21:54.929Z,2.94
2023-03-28T08:26:57.063Z,3.04
2023-03-28T08:32:02.519Z,3.28
2023-03-28T08:37:04.615Z,3.21
2023-03-28T08:42:24.390Z,3.27
2023-03-28T08:47:31.289Z,3.49
2023-03-28T08:52:34.339Z,3.69
2023-03-28T08:57:39.175Z,3.79
2023-03-28T09:02:45.801Z,3.81
2023-03-28T09:07:54.111Z,4.09
2023-03-28T09:13:10.575Z,4.15
2023-03-28T09:18:47.942Z,4.66
2023-03-28T09:24:06.571Z,4.43
2023-03-28T09:29:13.932Z,4.66
2023-03-28T09:34:21.897Z,4.66
2023-03-28T09:39:32.119Z,7.71
2023-03-28T09:44:53.571Z,8.52
2023-03-28T09:50:09.502Z,9.21
2023-03-28T09:55:17.822Z,10.15
2023-03-28T10:00:22.086Z,9.62
2023-03-28T10:05:37.550Z,9.80
2023-03-28T10:10:40.495Z,8.70
2023-03-28T10:15:47.340Z,6.52
2023-03-28T10:20:54.928Z,9.00
2023-03-28T10:26:02.903Z,10.77
2023-03-28T10:31:05.705Z,11.59
2023-03-28T10:36:11.180Z,11.98
2023-03-28T10:41:22.296Z,10.56
2023-03-28T10:46:31.579Z,8.85
2023-03-28T10:51:38.593Z,12.20
2023-03-28T10:56:46.184Z,12.89
2023-03-28T11:02:04.911Z,12.01
2023-03-28T11:07:14.158Z,8.93
2023-03-28T11:12:54.386Z,10.35
2023-03-28T11:18:09.581Z,8.10
2023-03-28T11:23:41.728Z,7.20
2023-03-28T11:29:07.230Z,7.06
2023-03-28T11:34:19.972Z,8.02
2023-03-28T11:39:33.553Z,8.04
2023-03-28T11:44:39.916Z,8.45
2023-03-28T11:49:45.845Z,8.63
2023-03-28T11:54:53.690Z,8.91
2023-03-28T12:00:02.517Z,8.87
2023-03-28T12:05:09.746Z,8.36
2023-03-28T12:10:20.529Z,7.29
2023-03-28T12:15:29.193Z,6.64
2023-03-28T12:20:36.572Z,6.97
2023-03-28T12:25:46.441Z,7.77
2023-03-28T12:31:00.053Z,8.23
2023-03-28T12:36:12.895Z,8.32
2023-03-28T12:41:19.570Z,8.31
2023-03-28T12:46:25.499Z,8.12
2023-03-28T12:51:34.300Z,8.34
2023-03-28T12:56:38.262Z,9.03
2023-03-28T13:01:47.189Z,8.52
2023-03-28T13:06:57.959Z,7.80
2023-03-28T13:12:07.022Z,8.90
2023-03-28T13:17:20.261Z,8.23
2023-03-28T13:22:28.217Z,7.52
2023-03-28T13:27:33.544Z,7.29
2023-03-28T13:32:44.791Z,7.95
2023-03-28T13:37:48.102Z,7.71
2023-03-28T13:42:59.661Z,7.51
2023-03-28T13:48:13.118Z,7.79
2023-03-28T13:53:15.878Z,8.02
2023-03-28T13:58:19.435Z,8.27
2023-03-28T14:03:21.570Z,8.61
2023-03-28T14:08:23.782Z,8.64
2023-03-28T14:13:29.250Z,8.76
2023-03-28T14:18:35.157Z,8.09
2023-03-28T14:23:39.501Z,8.46
2023-03-28T14:28:45.981Z,8.01
2023-03-28T14:33:49.837Z,8.54
2023-03-28T14:38:55.004Z,9.25
2023-03-28T14:43:59.075Z,9.30
2023-03-28T14:49:03.880Z,8.99
2023-03-28T14:54:06.294Z,9.00
2023-03-28T14:59:15.671Z,9.03
2023-03-28T15:04:22.109Z,8.82
2023-03-28T15:09:29.464Z,8.75
2023-03-28T15:14:37.802Z,8.78
2023-03-28T15:19:41.608Z,8.83
2023-03-28T15:24:45.201Z,8.48
2023-03-28T15:29:48.735Z,8.17
2023-03-28T15:34:57.175Z,7.68
2023-03-28T15:40:22.104Z,7.58
2023-03-28T15:45:41.879Z,7.55
2023-03-28T15:50:49.556Z,7.55
2023-03-28T15:55:51.924Z,7.51
2023-03-28T16:00:55.512Z,7.59
2023-03-28T16:06:10.209Z,7.82
2023-03-28T16:11:19.015Z,8.02
2023-03-28T16:16:26.275Z,7.73
2023-03-28T16:21:28.570Z,7.64
2023-03-28T16:26:30.695Z,7.39
2023-03-28T16:31:34.395Z,7.42
2023-03-28T16:36:36.633Z,7.35
2023-03-28T16:41:38.871Z,7.39
2023-03-28T16:46:42.483Z,7.37
2023-03-28T16:51:45.007Z,7.30
2023-03-28T16:56:47.493Z,7.04
2023-03-28T17:01:51.653Z,6.85
2023-03-28T17:06:56.357Z,6.72
2023-03-28T17:12:00.961Z,6.58
2023-03-28T17:17:04.669Z,6.43
2023-03-28T17:22:06.809Z,6.23
2023-03-28T17:27:08.881Z,6.05
2023-03-28T17:32:12.102Z,6.07
2023-03-28T17:37:14.040Z,6.04
2023-03-28T17:42:16.246Z,6.01
2023-03-28T17:47:22.158Z,5.85
2023-03-28T17:52:24.060Z,5.58
2023-03-28T17:57:27.294Z,5.34
2023-03-28T18:02:30.482Z,5.16
2023-03-28T18:07:32.662Z,4.96
2023-03-28T18:12:35.099Z,4.84
2023-03-28T18:17:38.411Z,4.76
2023-03-28T18:22:42.699Z,4.67
2023-03-28T18:27:44.671Z,4.55
2023-03-28T18:32:47.769Z,4.39
2023-03-28T18:37:49.754Z,4.32
2023-03-28T18:42:51.628Z,4.24
2023-03-28T18:47:55.238Z,4.03
2023-03-28T18:52:58.059Z,4.01
2023-03-28T18:58:00.693Z,3.88
2023-03-28T19:03:04.365Z,3.79
2023-03-28T19:08:06.779Z,3.80
2023-03-28T19:13:09.421Z,3.77
2023-03-28T19:18:15.660Z,3.75
2023-03-28T19:23:17.963Z,3.50
2023-03-28T19:28:20.741Z,3.24
2023-03-28T19:33:23.856Z,2.98
2023-03-28T19:38:26.197Z,2.80
2023-03-28T19:43:29.006Z,2.80
2023-03-28T19:48:32.916Z,2.64
2023-03-28T19:53:35.063Z,2.39
2023-03-28T19:58:37.555Z,2.22
2023-03-28T20:03:48.395Z,2.01
2023-03-28T20:08:51.073Z,1.97
2023-03-28T20:13:52.833Z,1.75
2023-03-28T20:18:56.547Z,1.59
2023-03-28T20:23:59.461Z,1.44
2023-03-28T20:29:03.050Z,1.16
2023-03-28T20:34:07.802Z,1.14
2023-03-28T20:39:11.264Z,0.99
2023-03-28T20:44:14.376Z,0.86
2023-03-28T20:49:19.409Z,0.66
2023-03-28T20:54:23.077Z,0.52
2023-03-28T20:59:26.987Z,0.47
2023-03-28T21:04:32.645Z,0.46
2023-03-28T21:09:35.425Z,0.52
2023-03-28T21:14:37.653Z,0.46
2023-03-28T21:19:43.124Z,0.49
2023-03-28T21:24:45.184Z,0.57
2023-03-28T21:29:47.588Z,0.52
2023-03-28T21:34:51.077Z,0.47
2023-03-28T21:39:53.221Z,0.42
2023-03-28T21:44:55.285Z,0.40
2023-03-28T21:49:58.773Z,0.26
2023-03-28T21:55:03.202Z,0.16
2023-03-28T22:00:06.685Z,0.07
2023-03-28T22:05:26.166Z,0.14
2023-03-28T22:10:31.348Z,0.13
2023-03-28T22:15:33.845Z,-0.04
2023-03-28T22:20:38.595Z,-0.17
2023-03-28T22:25:40.717Z,-0.12
2023-03-28T22:30:43.012Z,-0.27
2023-03-28T22:35:48.680Z,-0.37
2023-03-28T22:40:50.825Z,-0.44
2023-03-28T22:45:53.256Z,-0.46
2023-03-28T22:50:57.400Z,-0.58
2023-03-28T22:55:59.701Z,-0.67
2023-03-28T23:01:02.167Z,-0.83
2023-03-28T23:06:13.425Z,-0.72
2023-03-28T23:11:15.487Z,-0.78
2023-03-28T23:16:18.060Z,-0.77
2023-03-28T23:21:21.754Z,-0.79
2023-03-28T23:26:23.956Z,-0.85
2023-03-28T23:31:26.111Z,-0.86
2023-03-28T23:36:29.626Z,-0.93
2023-03-28T23:41:32.447Z,-0.88
2023-03-28T23:46:34.780Z,-0.72
2023-03-28T23:51:38.232Z,-0.63
2023-03-28T23:56:40.393Z,-0.50
